createdAt,value
2023-05-01T00:01:48.462Z,10.48
2023-05-01T00:08:40.084Z,10.38
2023-05-01T00:15:33.971Z,12.43
2023-05-01T00:22:14.551Z,11.43
2023-05-01T00:29:10.078Z,12.30
2023-05-01T00:35:53.623Z,11.10
2023-05-01T00:42:53.377Z,9.27
2023-05-01T00:49:49.856Z,14.23
2023-05-01T00:56:32.597Z,13.90
2023-05-01T01:03:25.626Z,9.82
2023-05-01T01:10:21.093Z,13.10
2023-05-01T01:16:58.739Z,10.27
2023-05-01T01:24:14.473Z,12.73
2023-05-01T01:31:21.962Z,10.65
2023-05-01T01:42:46.418Z,9.48
2023-05-01T01:49:40.427Z,10.85
2023-05-01T01:56:35.884Z,10.80
2023-05-01T02:03:25.465Z,14.35
2023-05-01T02:10:20.142Z,10.73
2023-05-01T02:17:10.745Z,12.40
2023-05-01T02:24:07.018Z,12.82
2023-05-01T02:30:47.613Z,12.25
2023-05-01T02:37:43.057Z,10.70
2023-05-01T02:44:42.331Z,10.35
2023-05-01T02:51:32.154Z,16.52
2023-05-01T02:58:26.172Z,11.63
2023-05-01T03:05:15.843Z,11.40
2023-05-01T03:12:09.492Z,12.07
2023-05-01T03:18:57.481Z,11.63
2023-05-01T03:25:54.956Z,10.65
2023-05-01T03:32:50.542Z,13.15
2023-05-01T03:44:02.024Z,12.10
2023-05-01T03:50:59.412Z,10.05
2023-05-01T03:57:49.572Z,7.47
2023-05-01T04:04:37.917Z,14.98
2023-05-01T04:11:25.401Z,9.23
2023-05-01T04:18:18.546Z,10.82
2023-05-01T04:25:11.190Z,9.93
2023-05-01T04:31:59.065Z,8.93
2023-05-01T04:43:05.867Z,9.05
2023-05-01T04:49:58.618Z,12.15
2023-05-01T04:56:46.520Z,9.03
2023-05-01T05:03:41.421Z,8.43
2023-05-01T05:10:36.414Z,9.93
2023-05-01T05:17:45.798Z,7.43
2023-05-01T05:24:40.981Z,8.50
2023-05-01T05:31:28.603Z,7.70
2023-05-01T05:38:21.980Z,8.90
2023-05-01T05:42:06.667Z,7.38
2023-05-01T05:49:06.960Z,6.72
2023-05-01T05:56:01.648Z,7.25
2023-05-01T06:02:44.703Z,8.10
2023-05-01T06:09:45.653Z,7.70
2023-05-01T06:16:40.783Z,9.52
2023-05-01T06:23:21.526Z,8.65
2023-05-01T06:30:36.862Z,7.10
2023-05-01T06:37:24.638Z,3.90
2023-05-01T06:44:18.477Z,3.40
2023-05-01T06:51:07.249Z,7.30
2023-05-01T06:58:04.848Z,3.72
2023-05-01T07:04:59.454Z,3.90
2023-05-01T07:11:57.221Z,6.80
2023-05-01T07:25:32.684Z,8.40
2023-05-01T07:32:23.621Z,5.97
2023-05-01T07:43:42.605Z,8.48
2023-05-01T07:50:26.147Z,5.85
2023-05-01T08:04:51.429Z,5.65
2023-05-01T08:11:47.293Z,6.05
2023-05-01T08:18:43.906Z,6.22
2023-05-01T08:25:38.073Z,4.32
2023-05-01T08:32:59.212Z,7.18
2023-05-01T08:44:15.116Z,5.68
2023-05-01T09:00:31.319Z,8.15
2023-05-01T09:15:18.519Z,4.03
2023-05-01T09:22:19.387Z,6.53
2023-05-01T09:29:48.649Z,4.65
2023-05-01T09:36:57.086Z,3.43
2023-05-01T09:51:32.686Z,3.97
2023-05-01T09:58:29.098Z,3.38
2023-05-01T10:10:06.766Z,4.93
2023-05-01T10:17:25.123Z,3.95
2023-05-01T10:24:20.629Z,3.40
2023-05-01T10:31:21.568Z,4.38
2023-05-01T10:38:31.306Z,5.10
2023-05-01T10:45:48.776Z,7.05
2023-05-01T10:53:22.317Z,4.55
2023-05-01T11:00:24.838Z,3.60
2023-05-01T11:18:54.703Z,3.22
2023-05-01T11:25:58.896Z,4.82
2023-05-01T11:32:30.517Z,3.70
2023-05-01T11:39:28.008Z,3.15
2023-05-01T11:46:22.024Z,4.15
2023-05-01T11:53:17.953Z,5.00
2023-05-01T12:00:08.630Z,3.92
2023-05-01T12:11:51.898Z,2.97
2023-05-01T12:18:41.049Z,2.65
2023-05-01T12:25:39.707Z,2.33
2023-05-01T12:32:39.425Z,8.40
2023-05-01T12:39:53.622Z,1.48
2023-05-01T12:46:34.864Z,2.95
2023-05-01T12:58:14.886Z,2.10
2023-05-01T13:05:21.486Z,2.38
2023-05-01T13:12:22.421Z,2.40
2023-05-01T13:19:29.868Z,4.13
2023-05-01T13:31:27.791Z,4.30
2023-05-01T13:38:39.811Z,3.70
2023-05-01T13:45:40.900Z,3.03
2023-05-01T13:52:51.817Z,1.92
2023-05-01T14:00:13.649Z,1.33
2023-05-01T14:11:48.300Z,2.70
2023-05-01T14:19:00.852Z,2.00
2023-05-01T14:27:08.202Z,2.13
2023-05-01T14:34:40.329Z,2.55
2023-05-01T14:41:48.641Z,2.38
2023-05-01T14:48:59.140Z,1.67
2023-05-01T14:56:10.119Z,1.70
2023-05-01T15:15:54.473Z,2.47
2023-05-01T15:31:00.951Z,2.03
2023-05-01T15:42:15.989Z,2.42
2023-05-01T15:53:40.999Z,1.20
2023-05-01T16:05:00.496Z,4.00
2023-05-01T16:16:23.689Z,3.92
2023-05-01T16:23:17.624Z,4.13
2023-05-01T16:43:59.442Z,2.30
2023-05-01T18:23:21.090Z,2.83
2023-05-01T18:30:11.347Z,3.22
2023-05-01T18:37:08.101Z,2.97
2023-05-01T18:43:57.828Z,5.07
2023-05-01T18:51:07.212Z,9.43
2023-05-01T18:57:58.920Z,6.95
2023-05-01T19:04:57.356Z,12.10
2023-05-01T19:11:46.418Z,9.82
2023-05-01T19:18:43.609Z,10.32
2023-05-01T19:29:49.013Z,25.40
2023-05-01T19:36:45.325Z,47.25
2023-05-01T19:43:36.401Z,55.67
2023-05-01T19:50:38.518Z,18.10
2023-05-01T20:02:01.042Z,11.05
2023-05-01T20:08:49.548Z,5.95
2023-05-01T20:15:37.253Z,10.18
2023-05-01T20:22:25.895Z,10.73
2023-05-01T20:29:26.042Z,6.32
2023-05-01T20:36:20.702Z,8.63
2023-05-01T20:43:05.148Z,8.60
2023-05-01T20:50:03.351Z,8.27
2023-05-01T20:56:57.542Z,6.72
2023-05-01T21:03:40.545Z,4.70
2023-05-01T21:10:28.454Z,3.83
2023-05-01T21:17:10.503Z,5.63
2023-05-01T21:24:05.567Z,5.53
2023-05-01T21:30:54.935Z,3.30
2023-05-01T21:37:47.398Z,3.10
2023-05-01T21:44:31.727Z,9.90
2023-05-01T21:51:28.608Z,4.35
2023-05-01T22:02:38.614Z,4.25
2023-05-01T22:09:31.462Z,4.65
2023-05-01T22:16:18.386Z,4.90
2023-05-01T22:23:14.478Z,6.28
2023-05-01T22:37:12.072Z,3.08
2023-05-01T22:44:06.556Z,4.30
2023-05-01T22:50:56.783Z,3.37
2023-05-01T23:02:17.822Z,3.58
2023-05-01T23:09:06.198Z,2.42
2023-05-01T23:16:00.665Z,2.45
2023-05-01T23:22:49.657Z,5.70
2023-05-01T23:29:43.274Z,2.55
2023-05-01T23:36:37.415Z,3.97
2023-05-01T23:43:31.993Z,2.70
2023-05-01T23:50:27.637Z,7.00
2023-05-01T23:57:14.421Z,2.30
